createdAt,value
2022-10-11T00:00:30.278Z,15.20
2022-10-11T00:01:30.313Z,12.70
2022-10-11T00:02:30.262Z,12.50
2022-10-11T00:03:30.261Z,11.90
2022-10-11T00:04:30.245Z,7.90
2022-10-11T00:05:30.234Z,10.80
2022-10-11T00:06:30.207Z,14.00
2022-10-11T00:07:30.193Z,12.50
2022-10-11T00:08:30.590Z,11.40
2022-10-11T00:09:30.169Z,11.60
2022-10-11T00:10:30.199Z,11.90
2022-10-11T00:11:30.150Z,12.80
2022-10-11T00:12:30.159Z,8.40
2022-10-11T00:13:30.140Z,7.70
2022-10-11T00:14:30.120Z,9.60
2022-10-11T00:15:30.108Z,15.90
2022-10-11T00:16:30.104Z,10.60
2022-10-11T00:17:30.085Z,14.30
2022-10-11T00:18:30.098Z,11.90
2022-10-11T00:19:30.060Z,10.70
2022-10-11T00:20:30.059Z,11.70
2022-10-11T00:21:30.058Z,14.40
2022-10-11T00:22:30.062Z,14.10
2022-10-11T00:23:30.028Z,12.10
2022-10-11T00:24:30.023Z,10.70
2022-10-11T00:25:30.027Z,9.30
2022-10-11T00:26:29.989Z,10.30
2022-10-11T00:27:29.974Z,11.20
2022-10-11T00:28:30.056Z,14.00
2022-10-11T00:29:29.951Z,11.80
2022-10-11T00:30:29.943Z,10.70
2022-10-11T00:31:34.662Z,9.30
2022-10-11T00:32:30.920Z,10.90
2022-10-11T00:33:29.906Z,11.50
2022-10-11T00:34:29.921Z,9.40
2022-10-11T00:35:29.901Z,14.30
2022-10-11T00:36:29.880Z,15.50
2022-10-11T00:37:29.880Z,10.00
2022-10-11T00:38:31.874Z,14.40
2022-10-11T00:39:29.839Z,9.00
2022-10-11T00:40:29.862Z,14.90
2022-10-11T00:41:29.821Z,12.30
2022-10-11T00:42:29.820Z,9.00
2022-10-11T00:43:29.841Z,10.20
2022-10-11T00:44:29.820Z,12.20
2022-10-11T00:45:36.784Z,12.90
2022-10-11T00:46:29.771Z,11.90
2022-10-11T00:47:29.753Z,10.70
2022-10-11T00:48:29.743Z,12.20
2022-10-11T00:49:29.739Z,10.00
2022-10-11T00:50:29.721Z,12.10
2022-10-11T00:51:29.723Z,13.50
2022-10-11T00:52:29.700Z,12.10
2022-10-11T00:53:29.705Z,10.50
2022-10-11T00:54:29.718Z,10.70
2022-10-11T00:55:29.663Z,13.20
2022-10-11T00:56:29.656Z,11.70
2022-10-11T00:57:29.646Z,12.60
2022-10-11T00:58:29.638Z,14.70
2022-10-11T00:59:29.631Z,11.70
2022-10-11T01:00:29.622Z,11.80
2022-10-11T01:01:29.661Z,10.80
2022-10-11T01:02:29.603Z,9.10
2022-10-11T01:03:29.577Z,9.70
2022-10-11T01:04:29.644Z,10.40
2022-10-11T01:05:30.445Z,12.50
2022-10-11T01:06:29.565Z,9.00
2022-10-11T01:07:29.538Z,10.50
2022-10-11T01:08:29.525Z,9.00
2022-10-11T01:09:29.529Z,14.50
2022-10-11T01:10:29.525Z,11.70
2022-10-11T01:11:29.486Z,10.70
2022-10-11T01:12:29.482Z,12.10
2022-10-11T01:13:29.487Z,10.20
2022-10-11T01:14:29.458Z,11.20
2022-10-11T01:15:29.455Z,11.80
2022-10-11T01:16:29.458Z,8.10
2022-10-11T01:17:29.426Z,9.40
2022-10-11T01:18:29.422Z,12.40
2022-10-11T01:19:29.411Z,11.60
2022-10-11T01:20:29.394Z,12.60
2022-10-11T01:21:29.375Z,11.20
2022-10-11T01:22:29.383Z,13.60
2022-10-11T01:23:29.356Z,11.00
2022-10-11T01:24:29.352Z,11.70
2022-10-11T01:25:29.352Z,10.60
2022-10-11T01:26:29.328Z,10.30
2022-10-11T01:27:29.337Z,10.40
2022-10-11T01:28:29.389Z,9.90
2022-10-11T01:29:29.289Z,13.10
2022-10-11T01:30:29.286Z,12.20
2022-10-11T01:31:29.296Z,11.10
2022-10-11T01:32:29.265Z,11.60
2022-10-11T01:33:29.274Z,14.10
2022-10-11T01:34:29.242Z,9.40
2022-10-11T01:35:29.242Z,14.50
2022-10-11T01:36:29.249Z,11.90
2022-10-11T01:37:29.214Z,8.90
2022-10-11T01:38:29.194Z,10.30
2022-10-11T01:39:29.180Z,10.70
2022-10-11T01:40:29.171Z,11.70
2022-10-11T01:41:29.174Z,14.70
2022-10-11T01:42:29.187Z,12.00
2022-10-11T01:43:29.161Z,12.20
2022-10-11T01:44:29.142Z,11.00
2022-10-11T01:45:29.130Z,11.20
2022-10-11T01:46:29.111Z,14.50
2022-10-11T01:47:29.100Z,13.50
2022-10-11T01:48:29.082Z,11.50
2022-10-11T01:49:29.068Z,12.30
2022-10-11T01:50:29.069Z,11.40
2022-10-11T01:51:29.048Z,10.50
2022-10-11T01:52:29.050Z,11.30
2022-10-11T01:53:29.026Z,11.00
2022-10-11T01:54:44.129Z,10.40
2022-10-11T01:55:29.999Z,9.40
2022-10-11T01:56:29.000Z,8.30
2022-10-11T01:57:29.012Z,13.20
2022-10-11T01:58:28.973Z,9.80
2022-10-11T01:59:28.970Z,10.80
2022-10-11T02:00:29.122Z,10.10
2022-10-11T02:01:29.059Z,12.60
2022-10-11T02:02:28.922Z,11.30
2022-10-11T02:03:28.917Z,9.30
2022-10-11T02:04:28.902Z,16.60
2022-10-11T02:05:28.906Z,18.90
2022-10-11T02:06:28.880Z,31.20
2022-10-11T02:07:28.874Z,33.50
2022-10-11T02:08:28.871Z,29.70
2022-10-11T02:09:28.853Z,25.70
2022-10-11T02:10:28.859Z,52.00
2022-10-11T02:11:28.831Z,42.20
2022-10-11T02:12:28.816Z,35.80
2022-10-11T02:13:28.898Z,39.50
2022-10-11T02:14:28.795Z,47.20
2022-10-11T02:15:28.784Z,46.60
2022-10-11T02:16:28.770Z,36.20
2022-10-11T02:17:28.771Z,56.70
2022-10-11T02:18:28.752Z,36.00
2022-10-11T02:19:28.770Z,46.20
2022-10-11T02:20:28.741Z,32.90
2022-10-11T02:21:28.734Z,50.70
2022-10-11T02:22:28.711Z,67.50
2022-10-11T02:23:28.698Z,65.80
2022-10-11T02:24:28.710Z,56.00
2022-10-11T02:25:28.680Z,61.70
2022-10-11T02:26:28.682Z,59.90
2022-10-11T02:27:28.678Z,79.30
2022-10-11T02:28:28.756Z,44.60
2022-10-11T02:29:28.657Z,52.10
2022-10-11T02:30:28.630Z,64.50
2022-10-11T02:31:28.623Z,43.20
2022-10-11T02:32:28.598Z,62.10
2022-10-11T02:33:28.588Z,55.40
2022-10-11T02:34:28.577Z,65.30
2022-10-11T02:35:28.592Z,41.70
2022-10-11T02:36:28.584Z,44.30
2022-10-11T02:37:28.557Z,50.40
2022-10-11T02:38:28.556Z,45.40
2022-10-11T02:39:28.526Z,55.40
2022-10-11T02:40:28.507Z,43.70
2022-10-11T02:41:28.502Z,37.40
2022-10-11T02:42:28.485Z,47.90
2022-10-11T02:43:28.492Z,45.20
2022-10-11T02:44:28.463Z,61.70
2022-10-11T02:45:28.479Z,68.70
2022-10-11T02:46:35.945Z,56.00
2022-10-11T02:47:28.438Z,45.60
2022-10-11T02:48:28.435Z,56.10
2022-10-11T02:49:28.412Z,70.00
2022-10-11T02:50:28.397Z,68.70
2022-10-11T02:51:28.392Z,52.30
2022-10-11T02:52:28.377Z,58.50
2022-10-11T02:53:28.385Z,77.60
2022-10-11T02:54:28.355Z,39.40
2022-10-11T02:55:28.349Z,37.50
2022-10-11T02:56:28.363Z,52.00
2022-10-11T02:57:28.346Z,52.90
2022-10-11T02:58:28.323Z,83.80
2022-10-11T02:59:28.325Z,59.00
2022-10-11T03:00:28.292Z,103.20
2022-10-11T03:01:28.389Z,56.50
2022-10-11T03:02:28.285Z,73.00
2022-10-11T03:03:28.274Z,70.40
2022-10-11T03:04:28.250Z,68.50
2022-10-11T03:05:28.245Z,79.60
2022-10-11T03:06:28.251Z,55.10
2022-10-11T03:07:28.231Z,63.80
2022-10-11T03:08:28.205Z,69.60
2022-10-11T03:09:28.200Z,65.60
2022-10-11T03:10:28.181Z,89.70
2022-10-11T03:11:28.180Z,57.50
2022-10-11T03:12:28.175Z,76.10
2022-10-11T03:13:28.153Z,66.40
2022-10-11T03:14:28.152Z,62.30
2022-10-11T03:15:28.130Z,66.70
2022-10-11T03:16:28.135Z,57.30
2022-10-11T03:17:36.839Z,63.10
2022-10-11T03:18:29.090Z,65.90
2022-10-11T03:19:28.103Z,54.40
2022-10-11T03:20:28.071Z,63.30
2022-10-11T03:21:28.064Z,53.90
2022-10-11T03:22:28.063Z,64.00
2022-10-11T03:23:28.055Z,65.30
2022-10-11T03:24:28.034Z,36.30
2022-10-11T03:25:28.020Z,68.50
2022-10-11T03:26:28.000Z,63.10
2022-10-11T03:27:28.001Z,45.20
2022-10-11T03:28:28.065Z,56.00
2022-10-11T03:29:28.149Z,65.90
2022-10-11T03:30:27.955Z,36.40
2022-10-11T03:31:27.951Z,52.20
2022-10-11T03:32:27.937Z,51.40
2022-10-11T03:33:27.959Z,51.90
2022-10-11T03:34:27.939Z,57.60
2022-10-11T03:35:27.909Z,42.10
2022-10-11T03:36:27.904Z,38.90
2022-10-11T03:37:27.888Z,42.60
2022-10-11T03:38:27.904Z,49.00
2022-10-11T03:39:27.859Z,34.30
2022-10-11T03:40:27.868Z,34.60
2022-10-11T03:41:27.836Z,28.30
2022-10-11T03:42:27.823Z,43.00
2022-10-11T03:43:27.823Z,36.20
2022-10-11T03:44:27.801Z,43.30
2022-10-11T03:45:27.824Z,49.90
2022-10-11T03:46:27.779Z,40.60
2022-10-11T03:47:27.782Z,34.30
2022-10-11T03:48:27.757Z,39.30
2022-10-11T03:49:27.768Z,34.00
2022-10-11T03:50:27.750Z,45.60
2022-10-11T03:51:27.755Z,39.90
2022-10-11T03:52:27.720Z,40.20
2022-10-11T03:53:27.707Z,40.40
2022-10-11T03:54:27.703Z,26.60
2022-10-11T03:55:27.691Z,41.70
2022-10-11T03:56:27.679Z,32.80
2022-10-11T03:57:27.660Z,36.10
2022-10-11T03:58:27.668Z,46.20
2022-10-11T03:59:27.666Z,28.80
2022-10-11T04:00:27.633Z,34.00
2022-10-11T04:01:27.641Z,40.10
2022-10-11T04:02:27.602Z,21.40
2022-10-11T04:03:27.594Z,22.90
2022-10-11T04:04:27.590Z,30.40
2022-10-11T04:05:27.591Z,33.90
2022-10-11T04:06:27.571Z,30.70
2022-10-11T04:07:27.562Z,36.60
2022-10-11T04:08:27.557Z,42.90
2022-10-11T04:09:27.528Z,36.40
2022-10-11T04:10:27.515Z,25.60
2022-10-11T04:11:27.543Z,23.90
2022-10-11T04:12:27.507Z,37.50
2022-10-11T04:13:27.496Z,35.60
2022-10-11T04:14:27.481Z,35.80
2022-10-11T04:15:27.476Z,28.40
2022-10-11T04:16:27.453Z,36.70
2022-10-11T04:17:27.453Z,36.40
2022-10-11T04:18:27.443Z,31.00
2022-10-11T04:19:27.438Z,30.20
2022-10-11T04:20:27.406Z,30.40
2022-10-11T04:21:27.415Z,31.10
2022-10-11T04:22:27.392Z,35.20
2022-10-11T04:23:27.389Z,29.60
2022-10-11T04:24:27.362Z,33.00
2022-10-11T04:25:27.365Z,30.20
2022-10-11T04:26:27.337Z,25.10
2022-10-11T04:27:27.332Z,31.40
2022-10-11T04:28:27.362Z,30.80
2022-10-11T04:29:32.158Z,30.70
2022-10-11T04:30:28.306Z,35.50
2022-10-11T04:31:27.286Z,36.10
2022-10-11T04:32:27.276Z,36.40
2022-10-11T04:33:27.312Z,34.00
2022-10-11T04:34:27.250Z,38.20
2022-10-11T04:35:27.248Z,33.10
2022-10-11T04:36:27.258Z,34.50
2022-10-11T04:37:27.245Z,30.90
2022-10-11T04:38:27.224Z,31.00
2022-10-11T04:39:27.233Z,27.10
2022-10-11T04:40:27.204Z,31.30
2022-10-11T04:41:27.195Z,31.50
2022-10-11T04:42:27.172Z,32.80
2022-10-11T04:43:27.166Z,33.10
2022-10-11T04:44:27.164Z,36.90
2022-10-11T04:45:27.148Z,36.90
2022-10-11T04:46:27.130Z,34.80
2022-10-11T04:47:34.663Z,36.10
2022-10-11T04:48:27.096Z,36.60
2022-10-11T04:49:27.091Z,39.00
2022-10-11T04:50:27.076Z,39.90
2022-10-11T04:51:27.080Z,44.50
2022-10-11T04:52:27.053Z,47.40
2022-10-11T04:53:27.072Z,35.60
2022-10-11T04:54:27.052Z,39.20
2022-10-11T04:55:27.045Z,37.60
2022-10-11T04:56:27.024Z,42.20
2022-10-11T04:57:27.018Z,44.50
2022-10-11T04:58:27.666Z,37.60
2022-10-11T04:59:26.984Z,43.10
2022-10-11T05:00:26.968Z,34.90
2022-10-11T05:01:26.977Z,35.40
2022-10-11T05:02:27.043Z,36.50
2022-10-11T05:03:26.940Z,32.70
2022-10-11T05:04:26.938Z,38.00
2022-10-11T05:05:26.924Z,27.80
2022-10-11T05:06:26.900Z,37.50
2022-10-11T05:07:26.905Z,37.30
2022-10-11T05:08:26.891Z,33.40
2022-10-11T05:09:26.901Z,35.00
2022-10-11T05:10:26.856Z,41.80
2022-10-11T05:11:26.853Z,54.40
2022-10-11T05:12:26.903Z,39.20
2022-10-11T05:13:26.849Z,27.80
2022-10-11T05:14:26.825Z,28.20
2022-10-11T05:15:26.820Z,46.00
2022-10-11T05:16:26.802Z,45.30
2022-10-11T05:17:26.782Z,53.70
2022-10-11T05:18:26.787Z,47.50
2022-10-11T05:19:26.772Z,32.70
2022-10-11T05:20:26.744Z,35.60
2022-10-11T05:21:26.738Z,46.70
2022-10-11T05:22:26.742Z,37.60
2022-10-11T05:23:26.732Z,51.30
2022-10-11T05:24:26.701Z,37.10
2022-10-11T05:25:26.729Z,52.80
2022-10-11T05:26:26.679Z,38.00
2022-10-11T05:27:26.688Z,45.20
2022-10-11T05:28:26.735Z,52.70
2022-10-11T05:29:26.664Z,50.00
2022-10-11T05:30:26.695Z,45.60
2022-10-11T05:31:26.632Z,45.00
2022-10-11T05:32:27.990Z,33.10
2022-10-11T05:33:26.617Z,42.20
2022-10-11T05:34:26.619Z,39.50
2022-10-11T05:35:26.587Z,39.70
2022-10-11T05:36:26.576Z,29.30
2022-10-11T05:37:26.578Z,32.40
2022-10-11T05:38:26.549Z,42.10
2022-10-11T05:39:26.557Z,36.80
2022-10-11T05:40:26.545Z,22.10
2022-10-11T05:41:26.545Z,26.50
2022-10-11T05:42:26.505Z,37.60
2022-10-11T05:43:26.501Z,21.20
2022-10-11T05:44:26.525Z,33.60
2022-10-11T05:45:26.525Z,33.00
2022-10-11T05:46:26.461Z,44.30
2022-10-11T05:47:26.463Z,41.50
2022-10-11T05:48:26.455Z,30.40
2022-10-11T05:49:26.447Z,28.10
2022-10-11T05:50:26.433Z,32.40
2022-10-11T05:51:26.423Z,29.20
2022-10-11T05:52:26.396Z,34.40
2022-10-11T05:53:26.391Z,30.50
2022-10-11T05:54:26.376Z,37.70
2022-10-11T05:55:26.381Z,35.40
2022-10-11T05:56:26.374Z,36.40
2022-10-11T05:57:26.373Z,32.30
2022-10-11T05:58:26.332Z,31.50
2022-10-11T05:59:26.326Z,28.50
2022-10-11T06:00:26.335Z,34.90
2022-10-11T06:01:26.361Z,31.50
2022-10-11T06:02:26.328Z,22.60
2022-10-11T06:03:26.305Z,30.00
2022-10-11T06:04:26.269Z,30.90
2022-10-11T06:05:26.272Z,37.90
2022-10-11T06:06:26.294Z,38.60
2022-10-11T06:07:26.237Z,38.80
2022-10-11T06:08:26.221Z,30.80
2022-10-11T06:09:26.220Z,37.60
2022-10-11T06:10:26.228Z,33.10
2022-10-11T06:11:26.225Z,37.40
2022-10-11T06:12:26.182Z,40.90
2022-10-11T06:13:26.183Z,34.10
2022-10-11T06:14:26.174Z,45.20
2022-10-11T06:15:26.157Z,31.40
2022-10-11T06:16:26.139Z,37.30
2022-10-11T06:17:26.135Z,43.50
2022-10-11T06:18:26.117Z,29.50
2022-10-11T06:19:26.102Z,31.90
2022-10-11T06:20:26.111Z,51.80
2022-10-11T06:21:26.078Z,39.00
2022-10-11T06:22:26.073Z,35.00
2022-10-11T06:23:26.069Z,34.10
2022-10-11T06:24:26.060Z,55.60
2022-10-11T06:25:26.033Z,38.30
2022-10-11T06:26:26.033Z,59.00
2022-10-11T06:27:26.667Z,40.60
2022-10-11T06:28:26.088Z,34.60
2022-10-11T06:29:26.011Z,28.10
2022-10-11T06:30:25.983Z,28.80
2022-10-11T06:31:25.980Z,43.20
2022-10-11T22:45:30.168Z,6.80
2022-10-11T22:46:30.162Z,7.90
2022-10-11T22:47:30.117Z,12.00
2022-10-11T22:48:30.108Z,9.80
2022-10-11T22:49:30.113Z,11.20
2022-10-11T22:50:30.109Z,12.50
2022-10-11T22:51:30.075Z,8.90
2022-10-11T22:52:30.074Z,11.80
2022-10-11T22:53:30.072Z,12.60
2022-10-11T22:54:30.075Z,10.40
2022-10-11T22:55:30.029Z,13.50
2022-10-11T22:56:30.022Z,13.10
2022-10-11T22:57:30.017Z,11.50
2022-10-11T22:58:30.000Z,10.00
2022-10-11T22:59:30.011Z,11.30
2022-10-11T23:00:29.990Z,13.20
2022-10-11T23:01:29.986Z,12.40
2022-10-11T23:02:29.981Z,11.80
2022-10-11T23:03:30.000Z,12.60
2022-10-11T23:04:29.947Z,13.40
2022-10-11T23:05:29.952Z,11.90
2022-10-11T23:06:29.910Z,10.20
2022-10-11T23:07:29.907Z,10.70
2022-10-11T23:08:29.900Z,13.80
2022-10-11T23:09:29.903Z,13.40
2022-10-11T23:10:29.878Z,13.20
2022-10-11T23:11:29.865Z,14.90
2022-10-11T23:12:29.845Z,13.50
2022-10-11T23:13:29.839Z,13.00
2022-10-11T23:14:29.839Z,11.20
2022-10-11T23:15:29.830Z,14.60
2022-10-11T23:16:29.802Z,13.40
2022-10-11T23:17:29.817Z,12.40
2022-10-11T23:18:29.786Z,12.10
2022-10-11T23:19:29.790Z,11.40
2022-10-11T23:20:29.796Z,15.10
2022-10-11T23:21:29.783Z,12.30
2022-10-11T23:22:29.760Z,14.20
2022-10-11T23:23:29.750Z,14.30
2022-10-11T23:24:29.716Z,18.20
2022-10-11T23:25:29.729Z,15.40
2022-10-11T23:26:29.695Z,14.00
2022-10-11T23:27:29.689Z,14.90
2022-10-11T23:28:29.696Z,15.20
2022-10-11T23:29:29.679Z,15.10
2022-10-11T23:30:29.651Z,13.80
2022-10-11T23:31:29.674Z,16.10
2022-10-11T23:32:29.646Z,15.20
2022-10-11T23:33:29.652Z,14.00
2022-10-11T23:34:29.608Z,14.70
2022-10-11T23:35:29.631Z,14.00
2022-10-11T23:36:29.594Z,13.40
2022-10-11T23:37:29.628Z,14.10
2022-10-11T23:38:29.577Z,14.00
2022-10-11T23:39:29.561Z,11.70
2022-10-11T23:40:29.554Z,14.10
2022-10-11T23:41:29.546Z,12.00
2022-10-11T23:42:29.534Z,11.40
2022-10-11T23:43:29.529Z,14.40
2022-10-11T23:44:29.511Z,11.30
2022-10-11T23:45:29.506Z,11.60
2022-10-11T23:46:29.482Z,11.00
2022-10-11T23:47:29.485Z,14.50
2022-10-11T23:48:29.480Z,11.20
2022-10-11T23:49:30.120Z,11.90
2022-10-11T23:50:29.446Z,13.40
2022-10-11T23:51:29.429Z,12.80
2022-10-11T23:52:29.426Z,10.70
2022-10-11T23:53:29.411Z,12.10
2022-10-11T23:54:29.416Z,12.90
2022-10-11T23:55:29.386Z,11.70
2022-10-11T23:56:29.372Z,12.60
2022-10-11T23:57:29.388Z,13.00
2022-10-11T23:58:29.362Z,10.40
2022-10-11T23:59:29.344Z,11.70
